createdAt,value
2022-09-07T00:01:07.475Z,5.28
2022-09-07T00:03:35.198Z,5.22
2022-09-07T00:06:06.337Z,3.63
2022-09-07T00:08:33.688Z,4.38
2022-09-07T00:11:02.712Z,3.17
2022-09-07T00:13:31.241Z,2.95
2022-09-07T00:15:58.660Z,4.75
2022-09-07T00:18:26.584Z,3.95
2022-09-07T00:21:01.397Z,4.43
2022-09-07T00:23:30.052Z,6.87
2022-09-07T00:26:09.546Z,4.70
2022-09-07T00:28:39.763Z,4.78
2022-09-07T00:31:10.910Z,5.07
2022-09-07T00:33:38.290Z,5.50
2022-09-07T00:36:05.732Z,6.10
2022-09-07T00:38:33.334Z,6.05
2022-09-07T00:41:00.641Z,7.72
2022-09-07T00:43:32.780Z,4.05
2022-09-07T00:46:00.485Z,4.40
2022-09-07T00:48:37.901Z,6.00
2022-09-07T00:51:10.517Z,4.43
2022-09-07T00:53:40.044Z,3.65
2022-09-07T00:56:07.560Z,4.10
2022-09-07T00:58:36.406Z,4.05
2022-09-07T01:01:03.992Z,3.80
2022-09-07T01:03:34.349Z,3.15
2022-09-07T01:06:06.154Z,3.55
2022-09-07T01:08:33.667Z,2.58
2022-09-07T01:11:02.328Z,3.63
2022-09-07T01:13:30.215Z,2.60
2022-09-07T01:16:03.333Z,3.20
2022-09-07T01:18:30.767Z,2.25
2022-09-07T01:21:20.703Z,2.90
2022-09-07T01:23:56.423Z,3.00
2022-09-07T01:26:43.822Z,2.17
2022-09-07T01:29:24.985Z,2.65
2022-09-07T01:31:55.333Z,4.60
2022-09-07T01:34:24.384Z,2.92
2022-09-07T01:36:51.733Z,1.63
2022-09-07T01:39:20.098Z,3.40
2022-09-07T01:41:57.066Z,2.92
2022-09-07T01:44:27.906Z,6.18
2022-09-07T01:47:00.767Z,2.40
2022-09-07T01:49:28.040Z,4.00
2022-09-07T01:51:58.545Z,2.83
2022-09-07T01:54:28.810Z,2.20
2022-09-07T01:56:58.386Z,1.40
2022-09-07T01:59:30.122Z,1.42
2022-09-07T02:02:01.804Z,1.45
2022-09-07T02:04:32.705Z,1.43
2022-09-07T02:07:06.335Z,1.33
2022-09-07T02:09:40.852Z,2.15
2022-09-07T02:12:12.169Z,1.85
2022-09-07T02:14:41.909Z,1.55
2022-09-07T02:17:17.199Z,1.23
2022-09-07T02:19:52.575Z,1.50
2022-09-07T02:22:23.206Z,1.67
2022-09-07T02:24:56.226Z,1.42
2022-09-07T02:27:34.701Z,1.58
2022-09-07T02:30:02.050Z,1.13
2022-09-07T02:32:29.323Z,1.10
2022-09-07T02:34:56.860Z,1.05
2022-09-07T02:37:24.431Z,1.20
2022-09-07T02:39:51.836Z,1.52
2022-09-07T02:42:19.160Z,1.30
2022-09-07T02:44:46.670Z,1.25
2022-09-07T02:47:26.269Z,1.40
2022-09-07T02:50:02.751Z,2.20
2022-09-07T02:52:39.159Z,1.58
2022-09-07T02:55:15.475Z,2.67
2022-09-07T02:57:56.437Z,1.70
2022-09-07T03:00:26.201Z,1.40
2022-09-07T03:02:59.516Z,1.83
2022-09-07T03:05:33.776Z,1.33
2022-09-07T03:08:01.355Z,1.60
2022-09-07T03:10:29.403Z,2.20
2022-09-07T03:12:56.768Z,1.30
2022-09-07T03:15:25.462Z,1.83
2022-09-07T03:17:52.942Z,1.15
2022-09-07T03:20:20.905Z,1.80
2022-09-07T03:22:48.815Z,2.15
2022-09-07T03:25:16.867Z,1.00
2022-09-07T03:27:44.589Z,1.52
2022-09-07T03:30:12.368Z,2.85
2022-09-07T03:32:40.317Z,1.60
2022-09-07T03:35:08.342Z,1.50
2022-09-07T03:37:38.946Z,2.20
2022-09-07T03:40:07.975Z,1.90
2022-09-07T03:42:35.516Z,2.13
2022-09-07T03:45:02.778Z,1.43
2022-09-07T03:47:30.048Z,1.00
2022-09-07T03:49:57.278Z,1.42
2022-09-07T03:52:24.550Z,1.63
2022-09-07T03:54:51.812Z,1.17
2022-09-07T03:57:20.292Z,1.83
2022-09-07T03:59:48.008Z,1.95
2022-09-07T04:02:15.395Z,1.83
2022-09-07T04:04:43.177Z,1.67
2022-09-07T04:07:10.844Z,1.92
2022-09-07T04:09:38.136Z,1.33
2022-09-07T04:12:05.490Z,1.85
2022-09-07T04:14:32.834Z,2.05
2022-09-07T04:17:00.211Z,1.58
2022-09-07T04:19:27.565Z,1.55
2022-09-07T04:21:54.813Z,2.13
2022-09-07T04:24:22.124Z,1.88
2022-09-07T04:26:49.371Z,4.47
2022-09-07T04:29:16.627Z,2.13
2022-09-07T04:31:43.850Z,1.90
2022-09-07T04:34:11.131Z,1.93
2022-09-07T04:36:38.423Z,2.40
2022-09-07T04:39:05.888Z,2.47
2022-09-07T04:41:34.921Z,2.47
2022-09-07T04:44:03.659Z,3.25
2022-09-07T04:46:35.074Z,2.93
2022-09-07T04:49:04.316Z,2.53
2022-09-07T04:51:32.439Z,5.75
2022-09-07T04:54:00.933Z,3.75
2022-09-07T04:56:28.404Z,4.25
2022-09-07T04:58:56.018Z,3.93
2022-09-07T05:01:24.480Z,2.97
2022-09-07T05:03:52.028Z,5.45
2022-09-07T05:06:20.297Z,2.42
2022-09-07T05:08:49.037Z,4.20
2022-09-07T05:11:18.868Z,2.70
2022-09-07T05:13:46.419Z,2.58
2022-09-07T05:16:17.941Z,3.67
2022-09-07T05:18:45.505Z,2.60
2022-09-07T05:21:16.596Z,4.22
2022-09-07T05:23:44.284Z,2.00
2022-09-07T05:26:12.364Z,3.50
2022-09-07T05:28:39.781Z,3.25
2022-09-07T05:31:23.490Z,3.50
2022-09-07T05:36:42.278Z,4.30
2022-09-07T05:39:10.731Z,3.35
2022-09-07T05:41:37.972Z,4.40
2022-09-07T05:46:53.312Z,4.05
2022-09-07T05:49:20.553Z,3.20
2022-09-07T05:51:48.334Z,2.90
2022-09-07T05:54:15.704Z,5.68
2022-09-07T05:56:42.935Z,4.28
2022-09-07T05:59:10.238Z,3.92
2022-09-07T06:01:37.719Z,3.33
2022-09-07T06:04:05.176Z,4.07
2022-09-07T06:06:32.608Z,5.40
2022-09-07T06:08:59.909Z,7.25
2022-09-07T06:11:27.404Z,4.68
2022-09-07T06:13:54.755Z,3.77
2022-09-07T06:16:22.793Z,5.63
2022-09-07T06:18:50.802Z,3.65
2022-09-07T06:21:19.878Z,4.78
2022-09-07T06:23:47.491Z,3.92
2022-09-07T06:26:15.297Z,4.23
2022-09-07T06:28:49.700Z,7.65
2022-09-07T06:31:22.717Z,4.47
2022-09-07T06:33:50.685Z,4.95
2022-09-07T06:36:17.945Z,5.25
2022-09-07T06:38:45.500Z,5.77
2022-09-07T06:44:01.283Z,6.63
2022-09-07T06:49:15.783Z,5.65
2022-09-07T06:51:42.987Z,6.23
2022-09-07T06:56:57.684Z,5.22
2022-09-07T06:59:24.974Z,5.80
2022-09-07T07:01:52.218Z,7.65
2022-09-07T07:04:19.483Z,7.50
2022-09-07T07:06:46.808Z,5.45
2022-09-07T07:09:14.194Z,8.15
2022-09-07T07:11:43.543Z,7.32
2022-09-07T07:14:17.906Z,6.18
2022-09-07T07:16:45.513Z,7.13
2022-09-07T07:19:12.931Z,6.25
2022-09-07T07:22:03.628Z,9.52
2022-09-07T07:24:27.579Z,6.75
2022-09-07T07:26:54.819Z,8.27
2022-09-07T07:29:24.007Z,6.47
2022-09-07T07:31:53.464Z,9.25
2022-09-07T07:37:07.466Z,6.80
2022-09-07T07:42:22.560Z,9.03
2022-09-07T07:47:37.163Z,7.88
2022-09-07T07:53:41.214Z,10.20
2022-09-07T07:55:43.612Z,10.83
2022-09-07T07:58:11.308Z,10.57
2022-09-07T08:00:53.773Z,9.68
2022-09-07T08:03:25.991Z,9.73
2022-09-07T08:05:53.889Z,10.73
2022-09-07T08:08:21.394Z,11.53
2022-09-07T08:10:48.754Z,11.38
2022-09-07T08:13:16.386Z,10.68
2022-09-07T08:15:46.589Z,11.45
2022-09-07T08:18:14.712Z,10.38
2022-09-07T08:20:42.222Z,10.87
2022-09-07T08:23:09.639Z,11.27
2022-09-07T08:25:37.121Z,11.75
2022-09-07T08:28:04.632Z,14.82
2022-09-07T08:30:32.076Z,11.07
2022-09-07T08:32:59.303Z,11.50
2022-09-07T08:35:26.520Z,11.85
2022-09-07T08:37:54.262Z,12.07
2022-09-07T08:40:21.634Z,11.93
2022-09-07T08:42:55.861Z,13.73
2022-09-07T08:45:32.768Z,12.50
2022-09-07T08:48:00.246Z,11.65
2022-09-07T08:50:29.906Z,11.43
2022-09-07T08:53:13.587Z,12.65
2022-09-07T08:55:43.965Z,12.23
2022-09-07T08:58:32.523Z,12.70
2022-09-07T09:04:16.699Z,12.88
2022-09-07T09:06:44.781Z,13.73
2022-09-07T09:09:18.189Z,11.77
2022-09-07T09:12:07.664Z,11.90
2022-09-07T09:14:44.189Z,14.50
2022-09-07T09:17:23.327Z,12.07
2022-09-07T09:19:50.669Z,12.85
2022-09-07T09:22:26.572Z,11.88
2022-09-07T09:24:56.729Z,11.90
2022-09-07T09:27:23.945Z,12.48
2022-09-07T09:29:51.173Z,11.73
2022-09-07T09:32:37.798Z,12.25
2022-09-07T09:35:15.677Z,12.13
2022-09-07T09:37:43.697Z,9.50
2022-09-07T09:40:20.184Z,10.75
2022-09-07T09:42:48.257Z,9.15
2022-09-07T09:45:21.578Z,9.93
2022-09-07T09:47:50.656Z,11.43
2022-09-07T09:53:30.316Z,9.82
2022-09-07T09:55:57.570Z,8.07
2022-09-07T10:01:24.305Z,9.18
2022-09-07T10:03:56.058Z,6.80
2022-09-07T10:06:25.374Z,9.27
2022-09-07T10:09:01.401Z,6.05
2022-09-07T10:12:08.493Z,7.68
2022-09-07T10:14:47.148Z,5.93
2022-09-07T10:17:33.596Z,9.90
2022-09-07T10:20:23.563Z,7.30
2022-09-07T10:22:57.016Z,5.40
2022-09-07T10:25:42.452Z,6.72
2022-09-07T10:28:16.710Z,6.72
2022-09-07T10:30:51.139Z,5.10
2022-09-07T10:33:38.438Z,8.98
2022-09-07T10:36:27.260Z,8.10
2022-09-07T10:39:01.612Z,6.45
2022-09-07T10:41:45.768Z,6.75
2022-09-07T10:44:41.944Z,4.30
2022-09-07T10:47:28.924Z,5.25
2022-09-07T10:50:25.895Z,6.45
2022-09-07T10:52:53.311Z,7.80
2022-09-07T10:55:26.250Z,6.03
2022-09-07T10:58:14.923Z,9.63
2022-09-07T11:01:01.135Z,5.25
2022-09-07T11:03:35.573Z,4.05
2022-09-07T11:06:16.548Z,5.15
2022-09-07T11:12:03.571Z,4.97
2022-09-07T11:14:33.814Z,3.47
2022-09-07T11:17:02.712Z,6.53
2022-09-07T11:19:37.284Z,5.10
2022-09-07T11:22:16.028Z,3.38
2022-09-07T11:27:51.921Z,7.60
2022-09-07T11:30:31.866Z,4.95
2022-09-07T11:33:02.225Z,6.85
2022-09-07T11:35:32.465Z,5.75
2022-09-07T11:38:03.887Z,7.50
2022-09-07T11:40:35.876Z,7.10
2022-09-07T11:43:23.542Z,5.82
2022-09-07T11:46:04.836Z,8.00
2022-09-07T11:48:36.341Z,8.00
2022-09-07T11:51:11.281Z,6.13
2022-09-07T11:53:40.583Z,6.10
2022-09-07T11:56:13.387Z,6.60
2022-09-07T11:58:59.450Z,5.82
2022-09-07T12:01:50.067Z,4.53
2022-09-07T12:04:24.918Z,10.87
2022-09-07T12:07:02.441Z,6.72
2022-09-07T12:09:44.975Z,6.68
2022-09-07T12:12:30.975Z,5.18
2022-09-07T12:15:03.781Z,4.95
2022-09-07T12:17:31.052Z,5.87
2022-09-07T12:20:17.861Z,9.75
2022-09-07T12:23:03.678Z,3.88
2022-09-07T12:25:33.450Z,3.08
2022-09-07T12:28:01.477Z,4.22
2022-09-07T12:30:30.195Z,7.67
2022-09-07T12:32:58.804Z,4.75
2022-09-07T12:35:29.878Z,3.85
2022-09-07T12:37:57.153Z,6.63
2022-09-07T12:40:37.243Z,3.72
2022-09-07T12:43:13.704Z,4.20
2022-09-07T12:45:41.567Z,4.97
2022-09-07T12:48:18.015Z,5.45
2022-09-07T12:50:58.935Z,5.78
2022-09-07T12:53:36.551Z,4.22
2022-09-07T12:56:17.584Z,4.83
2022-09-07T12:58:45.200Z,4.57
2022-09-07T13:01:24.844Z,4.65
2022-09-07T13:04:05.155Z,4.13
2022-09-07T13:09:28.756Z,4.13
2022-09-07T13:11:56.563Z,4.30
2022-09-07T13:14:28.703Z,4.82
2022-09-07T13:17:16.396Z,5.45
2022-09-07T13:19:47.077Z,3.20
2022-09-07T13:22:33.282Z,8.30
2022-09-07T13:25:02.178Z,5.80
2022-09-07T13:27:48.181Z,4.85
2022-09-07T13:30:15.429Z,4.57
2022-09-07T13:35:33.332Z,3.53
2022-09-07T13:38:02.423Z,4.50
2022-09-07T13:40:34.196Z,4.72
2022-09-07T13:43:03.848Z,3.65
2022-09-07T13:45:50.059Z,5.30
2022-09-07T13:48:36.086Z,3.93
2022-09-07T13:51:15.708Z,3.30
2022-09-07T13:53:46.646Z,5.30
2022-09-07T13:56:23.725Z,5.28
2022-09-07T13:58:53.383Z,3.55
2022-09-07T14:01:25.430Z,3.53
2022-09-07T14:03:57.711Z,5.72
2022-09-07T14:06:25.861Z,3.53
2022-09-07T14:08:53.137Z,4.90
2022-09-07T14:11:25.091Z,3.90
2022-09-07T14:14:11.358Z,4.30
2022-09-07T14:16:39.502Z,7.90
2022-09-07T14:19:17.122Z,4.13
2022-09-07T14:21:44.567Z,5.22
2022-09-07T14:24:25.586Z,4.35
2022-09-07T14:26:53.063Z,6.43
2022-09-07T14:29:24.625Z,4.18
2022-09-07T14:31:52.536Z,3.15
2022-09-07T14:34:23.255Z,4.35
2022-09-07T14:36:51.902Z,3.28
2022-09-07T14:39:20.999Z,5.73
2022-09-07T14:41:48.954Z,3.83
2022-09-07T14:44:49.552Z,3.85
2022-09-07T14:47:30.877Z,3.05
2022-09-07T14:50:05.849Z,5.28
2022-09-07T14:52:43.051Z,4.20
2022-09-07T14:55:27.864Z,5.95
2022-09-07T14:58:14.177Z,5.45
2022-09-07T15:00:41.626Z,2.97
2022-09-07T15:03:28.333Z,5.00
2022-09-07T15:06:01.175Z,4.20
2022-09-07T15:08:41.063Z,5.20
2022-09-07T15:14:10.121Z,3.03
2022-09-07T15:16:42.510Z,3.45
2022-09-07T15:19:16.147Z,4.80
2022-09-07T15:21:44.208Z,3.17
2022-09-07T15:24:11.774Z,6.47
2022-09-07T15:27:04.526Z,2.63
2022-09-07T15:29:32.489Z,3.78
2022-09-07T15:32:04.375Z,4.53
2022-09-07T15:34:34.370Z,3.63
2022-09-07T15:37:03.700Z,4.53
2022-09-07T15:39:31.600Z,4.22
2022-09-07T15:42:00.609Z,4.38
2022-09-07T15:44:46.157Z,4.97
2022-09-07T15:50:00.644Z,5.13
2022-09-07T15:52:31.468Z,3.45
2022-09-07T15:55:02.420Z,5.30
2022-09-07T16:00:33.652Z,3.38
2022-09-07T16:03:05.681Z,3.45
2022-09-07T16:05:39.950Z,3.83
2022-09-07T16:08:25.341Z,5.95
2022-09-07T16:11:11.249Z,3.23
2022-09-07T16:13:50.952Z,5.38
2022-09-07T16:17:26.550Z,3.65
2022-09-07T16:19:20.531Z,2.90
2022-09-07T16:21:49.748Z,5.75
2022-09-07T16:24:17.921Z,3.87
2022-09-07T16:27:13.918Z,4.80
2022-09-07T16:29:43.598Z,4.13
2022-09-07T16:35:03.912Z,7.65
2022-09-07T16:38:43.734Z,6.03
2022-09-07T16:40:28.953Z,5.00
2022-09-07T16:42:56.173Z,4.18
2022-09-07T16:48:10.774Z,2.78
2022-09-07T16:50:38.128Z,5.47
2022-09-07T16:53:05.449Z,2.65
2022-09-07T16:55:32.673Z,6.10
2022-09-07T17:00:47.159Z,3.08
2022-09-07T17:03:14.396Z,3.27
2022-09-07T17:05:41.736Z,7.30
2022-09-07T17:08:08.995Z,4.32
2022-09-07T17:10:36.266Z,6.40
2022-09-07T17:13:06.341Z,5.43
2022-09-07T17:15:36.617Z,4.83
2022-09-07T17:18:04.167Z,5.68
2022-09-07T17:20:31.430Z,4.03
2022-09-07T17:23:00.819Z,4.47
2022-09-07T17:25:28.325Z,4.70
2022-09-07T17:27:55.564Z,3.57
2022-09-07T17:30:24.758Z,8.38
2022-09-07T17:32:52.349Z,5.70
2022-09-07T17:35:19.608Z,4.10
2022-09-07T17:37:46.822Z,7.38
2022-09-07T17:40:14.083Z,7.17
2022-09-07T17:45:28.608Z,3.92
2022-09-07T17:47:56.844Z,3.53
2022-09-07T17:50:24.043Z,3.63
2022-09-07T17:52:54.229Z,6.70
2022-09-07T17:55:22.272Z,4.47
2022-09-07T17:57:49.477Z,4.25
2022-09-07T18:00:16.804Z,7.47
2022-09-07T18:02:44.282Z,5.82
2022-09-07T18:05:11.672Z,5.67
2022-09-07T18:07:38.892Z,6.07
2022-09-07T18:10:06.373Z,6.00
2022-09-07T18:12:33.791Z,5.45
2022-09-07T18:15:01.024Z,4.70
2022-09-07T18:17:28.283Z,4.17
2022-09-07T18:19:55.676Z,3.80
2022-09-07T18:22:23.298Z,6.20
2022-09-07T18:24:51.767Z,4.75
2022-09-07T18:27:21.096Z,7.35
2022-09-07T18:29:48.588Z,7.57
2022-09-07T18:32:15.851Z,6.72
2022-09-07T18:34:46.959Z,9.23
2022-09-07T18:37:17.126Z,6.30
2022-09-07T18:39:44.301Z,8.65
2022-09-07T18:42:11.564Z,6.37
2022-09-07T18:47:28.733Z,6.70
2022-09-07T18:49:56.690Z,7.93
2022-09-07T18:55:11.730Z,8.87
2022-09-07T18:57:39.022Z,7.28
2022-09-07T19:00:08.083Z,7.10
2022-09-07T19:02:35.940Z,15.85
2022-09-07T19:07:51.093Z,5.10
2022-09-07T19:10:18.438Z,7.93
2022-09-07T19:12:46.262Z,10.93
2022-09-07T19:15:13.819Z,13.88
2022-09-07T19:17:41.039Z,10.77
2022-09-07T19:20:08.520Z,10.77
2022-09-07T19:22:35.787Z,7.20
2022-09-07T19:25:02.996Z,7.68
2022-09-07T19:27:33.057Z,7.07
2022-09-07T19:30:00.296Z,10.10
2022-09-07T19:32:27.500Z,7.97
2022-09-07T19:34:55.434Z,10.77
2022-09-07T19:37:25.435Z,13.05
2022-09-07T19:39:55.056Z,11.82
2022-09-07T19:42:23.608Z,8.88
2022-09-07T19:44:51.025Z,13.30
2022-09-07T19:47:18.569Z,9.82
2022-09-07T19:49:45.874Z,11.30
2022-09-07T19:52:13.118Z,8.35
2022-09-07T19:54:40.647Z,6.70
2022-09-07T19:57:08.094Z,6.77
2022-09-07T19:59:35.506Z,7.60
2022-09-07T20:02:02.744Z,7.03
2022-09-07T20:04:30.061Z,6.85
2022-09-07T20:06:57.619Z,11.90
2022-09-07T20:09:25.778Z,7.57
2022-09-07T20:11:53.005Z,5.50
2022-09-07T20:14:20.615Z,8.10
2022-09-07T20:16:48.237Z,8.82
2022-09-07T20:19:15.792Z,10.13
2022-09-07T20:21:43.816Z,5.67
2022-09-07T20:24:22.549Z,12.40
2022-09-07T20:26:57.677Z,5.32
2022-09-07T20:29:28.180Z,6.55
2022-09-07T20:32:00.655Z,5.55
2022-09-07T20:34:28.758Z,5.63
2022-09-07T20:36:56.956Z,6.30
2022-09-07T20:39:24.857Z,5.28
2022-09-07T20:41:52.155Z,8.07
2022-09-07T20:44:19.719Z,4.55
2022-09-07T20:46:47.739Z,4.70
2022-09-07T20:49:15.629Z,6.50
2022-09-07T20:51:43.477Z,5.80
2022-09-07T20:54:10.934Z,8.90
2022-09-07T20:56:38.468Z,8.32
2022-09-07T20:59:10.000Z,4.47
2022-09-07T21:01:37.526Z,6.43
2022-09-07T21:04:06.410Z,7.38
2022-09-07T21:06:34.077Z,4.93
2022-09-07T21:09:02.045Z,6.10
2022-09-07T21:11:33.753Z,8.60
2022-09-07T21:14:02.212Z,5.00
2022-09-07T21:16:29.936Z,5.75
2022-09-07T21:18:58.715Z,6.18
2022-09-07T21:21:27.493Z,4.38
2022-09-07T21:23:58.041Z,4.82
2022-09-07T21:26:28.333Z,3.67
2022-09-07T21:28:59.684Z,5.30
2022-09-07T21:31:28.009Z,5.70
2022-09-07T21:34:04.977Z,4.30
2022-09-07T21:36:39.665Z,5.65
2022-09-07T21:39:10.360Z,5.33
2022-09-07T21:41:41.501Z,4.78
2022-09-07T21:44:09.492Z,4.82
2022-09-07T21:46:37.175Z,3.72
2022-09-07T21:49:05.098Z,4.70
2022-09-07T21:51:32.666Z,4.17
2022-09-07T21:54:04.511Z,3.95
2022-09-07T21:56:32.470Z,5.80
2022-09-07T21:59:03.134Z,4.10
2022-09-07T22:01:31.648Z,6.10
2022-09-07T22:04:01.002Z,4.23
2022-09-07T22:06:41.475Z,5.13
2022-09-07T22:09:12.084Z,5.70
2022-09-07T22:11:45.401Z,7.22
2022-09-07T22:14:15.932Z,5.90
2022-09-07T22:16:44.933Z,4.93
2022-09-07T22:19:13.070Z,2.92
2022-09-07T22:21:45.140Z,5.63
2022-09-07T22:24:15.291Z,5.13
2022-09-07T22:26:47.902Z,3.70
2022-09-07T22:29:15.664Z,8.17
2022-09-07T22:31:43.201Z,5.10
2022-09-07T22:34:17.363Z,7.13
2022-09-07T22:36:45.589Z,8.45
2022-09-07T22:39:23.836Z,5.15
2022-09-07T22:41:51.646Z,9.10
2022-09-07T22:44:20.662Z,4.60
2022-09-07T22:46:56.091Z,5.05
2022-09-07T22:49:28.441Z,4.55
2022-09-07T22:51:56.075Z,6.82
2022-09-07T22:54:25.100Z,6.37
2022-09-07T22:56:59.989Z,7.10
2022-09-07T22:59:32.456Z,3.78
2022-09-07T23:02:01.154Z,6.15
2022-09-07T23:04:31.710Z,5.03
2022-09-07T23:07:02.236Z,9.70
2022-09-07T23:09:33.036Z,6.55
2022-09-07T23:12:00.820Z,6.30
2022-09-07T23:14:28.319Z,5.18
2022-09-07T23:16:56.026Z,6.15
2022-09-07T23:19:25.156Z,4.43
2022-09-07T23:21:55.814Z,3.42
2022-09-07T23:24:26.092Z,2.90
2022-09-07T23:26:56.446Z,3.38
2022-09-07T23:29:30.840Z,5.68
2022-09-07T23:31:58.600Z,3.70
2022-09-07T23:34:25.957Z,4.45
2022-09-07T23:36:53.274Z,5.85
2022-09-07T23:39:20.666Z,6.50
2022-09-07T23:41:48.247Z,6.40
2022-09-07T23:44:16.139Z,4.40
2022-09-07T23:46:45.407Z,4.75
2022-09-07T23:49:13.447Z,4.95
2022-09-07T23:51:41.131Z,6.55
2022-09-07T23:54:09.247Z,6.55
2022-09-07T23:56:40.235Z,7.63
2022-09-07T23:59:17.436Z,5.47
